Time,TemperatureF,DewpointF,PressureIn,WindDirection,WindDirectionDegrees,WindSpeedMPH,WindSpeedGustMPH,Humidity,HourlyPrecipIn,Conditions,Clouds,dailyrainin,SoftwareType,DateUTC
2013-05-14 00:00:00,46.1,28.0,30.21,NW,323,2.0,2.0,49,0.00,,CLR,-99.99,VWS V12.06,2013-05-14 04:00:00,
2013-05-14 00:02:00,43.4,29.6,30.18,NW,317,0.0,4.0,58,0.00,,CLR,-99.99,VWS V12.06,2013-05-14 04:02:00,
2013-05-14 00:30:00,45.9,29.8,30.21,WNW,296,0.0,0.0,53,0.00,,CLR,-99.99,VWS V12.06,2013-05-14 04:30:00,
2013-05-14 01:00:00,46.2,29.1,30.20,WSW,253,4.0,6.0,51,0.00,,CLR,-99.99,VWS V12.06,2013-05-14 05:00:00,
2013-05-14 01:02:00,40.9,29.3,30.18,NW,326,0.0,2.0,63,0.00,,CLR,-99.99,VWS V12.06,2013-05-14 05:02:00,
2013-05-14 01:30:00,45.9,29.3,30.20,West,277,0.0,1.0,52,0.00,,CLR,-99.99,VWS V12.06,2013-05-14 05:30:00,
2013-05-14 02:00:00,45.3,29.6,30.20,WSW,246,0.0,2.0,54,0.00,,CLR,-99.99,VWS V12.06,2013-05-14 06:00:00,
2013-05-14 02:30:00,46.1,29.0,30.20,West,260,0.0,0.0,51,0.00,,CLR,-99.99,VWS V12.06,2013-05-14 06:30:00,
2013-05-14 03:00:00,46.0,28.9,30.21,West,271,2.0,4.0,51,0.00,,CLR,-99.99,VWS V12.06,2013-05-14 07:00:00,
2013-05-14 03:30:00,45.9,29.3,30.21,West,271,1.0,2.0,52,0.00,,CLR,-99.99,VWS V12.06,2013-05-14 07:30:00,
2013-05-14 04:00:00,46.0,29.4,30.21,West,271,2.0,2.0,52,0.00,,CLR,-99.99,VWS V12.06,2013-05-14 08:00:00,
2013-05-14 04:30:00,45.6,29.5,30.21,West,271,3.0,3.0,53,0.00,,CLR,-99.99,VWS V12.06,2013-05-14 08:30:00,
2013-05-14 05:00:00,45.0,28.9,30.21,SSW,213,1.0,1.0,53,0.00,,CLR,-99.99,VWS V12.06,2013-05-14 09:00:00,
2013-05-14 05:30:00,44.3,30.0,30.22,SW,221,1.0,1.0,57,0.00,,CLR,-99.99,VWS V12.06,2013-05-14 09:30:00,
2013-05-14 06:00:00,43.9,30.1,30.22,SW,227,3.0,3.0,58,0.00,,CLR,-99.99,VWS V12.06,2013-05-14 10:00:00,
2013-05-14 06:30:00,44.2,30.4,30.23,SW,219,2.0,2.0,58,0.00,,CLR,-99.99,VWS V12.06,2013-05-14 10:30:00,
2013-05-14 07:00:00,44.7,30.0,30.23,SW,225,0.0,2.0,56,0.00,,CLR,-99.99,VWS V12.06,2013-05-14 11:00:00,
2013-05-14 07:30:00,46.5,31.2,30.23,SW,225,1.0,2.0,55,0.00,,CLR,-99.99,VWS V12.06,2013-05-14 11:30:00,
2013-05-14 08:00:00,47.9,32.1,30.24,SW,231,1.0,1.0,54,0.00,,CLR,-99.99,VWS V12.06,2013-05-14 12:00:00,
2013-05-14 08:30:00,49.5,32.6,30.24,SSW,202,0.0,0.0,52,0.00,,CLR,-99.99,VWS V12.06,2013-05-14 12:30:00,
2013-05-14 09:00:00,50.8,34.3,30.24,SSW,204,3.0,4.0,53,0.00,,CLR,-99.99,VWS V12.06,2013-05-14 13:00:00,
2013-05-14 09:30:00,54.4,34.6,30.23,South,183,0.0,0.0,47,0.00,,CLR,-99.99,VWS V12.06,2013-05-14 13:30:00,
2013-05-14 10:00:00,54.0,39.1,30.23,ESE,110,4.0,4.0,57,0.00,,CLR,-99.99,VWS V12.06,2013-05-14 14:00:00,
2013-05-14 10:30:00,54.1,37.4,30.24,SSE,148,4.0,4.0,53,0.00,,CLR,-99.99,VWS V12.06,2013-05-14 14:30:00,
2013-05-14 11:00:00,54.4,39.0,30.24,South,173,0.0,0.0,56,0.00,,CLR,-99.99,VWS V12.06,2013-05-14 15:00:00,
2013-05-14 11:30:00,54.9,38.1,30.23,SSW,196,3.0,5.0,53,0.00,,CLR,-99.99,VWS V12.06,2013-05-14 15:30:00,
2013-05-14 12:00:00,57.5,41.5,30.22,SSW,208,4.0,6.0,55,0.00,,CLR,-99.99,VWS V12.06,2013-05-14 16:00:00,
2013-05-14 12:30:00,58.6,42.5,30.22,SSW,204,7.0,7.0,55,0.00,,CLR,-99.99,VWS V12.06,2013-05-14 16:30:00,
2013-05-14 13:00:00,59.4,40.8,30.21,South,182,6.0,6.0,50,0.00,,CLR,-99.99,VWS V12.06,2013-05-14 17:00:00,
2013-05-14 13:30:00,61.8,39.7,30.19,SSE,158,4.0,4.0,44,0.00,,CLR,-99.99,VWS V12.06,2013-05-14 17:30:00,
2013-05-14 14:00:00,62.5,42.0,30.19,South,171,5.0,5.0,47,0.00,,CLR,-99.99,VWS V12.06,2013-05-14 18:00:00,
2013-05-14 14:30:00,64.1,40.6,30.17,SSW,196,2.0,2.0,42,0.00,,CLR,-99.99,VWS V12.06,2013-05-14 18:30:00,
2013-05-14 15:00:00,65.9,42.8,30.15,SE,130,7.0,7.0,43,0.00,,SCT085,-99.99,VWS V12.06,2013-05-14 19:00:00,
2013-05-14 15:30:00,67.1,44.5,30.13,SSW,209,2.0,7.0,44,0.00,,SCT085,-99.99,VWS V12.06,2013-05-14 19:30:00,
2013-05-14 16:00:00,66.5,42.7,30.11,WSW,250,9.0,15.0,42,0.00,,CLR,-99.99,VWS V12.06,2013-05-14 20:00:00,
2013-05-14 16:30:00,66.9,43.7,30.10,South,184,8.0,8.0,43,0.00,,CLR,-99.99,VWS V12.06,2013-05-14 20:30:00,
2013-05-14 17:00:00,67.4,44.2,30.11,WSW,244,6.0,6.0,43,0.00,,CLR,-99.99,VWS V12.06,2013-05-14 21:00:00,
2013-05-14 17:30:00,67.7,45.6,30.11,SW,232,6.0,6.0,45,0.00,,CLR,-99.99,VWS V12.06,2013-05-14 21:30:00,
2013-05-14 18:00:00,68.3,47.3,30.11,SE,128,2.0,2.0,47,0.00,,SCT100,-99.99,VWS V12.06,2013-05-14 22:00:00,
2013-05-14 18:30:00,66.9,46.0,30.10,SSW,200,11.0,11.0,47,0.00,,SCT100,-99.99,VWS V12.06,2013-05-14 22:30:00,
2013-05-14 19:00:00,64.8,44.7,30.09,West,263,6.0,8.0,48,0.00,,CLR,-99.99,VWS V12.06,2013-05-14 23:00:00,
2013-05-14 19:30:00,61.3,45.0,30.08,SW,229,1.0,5.0,55,0.00,,CLR,-99.99,VWS V12.06,2013-05-14 23:30:00,
2013-05-14 20:00:00,59.3,45.0,30.08,WSW,240,3.0,3.0,59,0.00,,BKN110,-99.99,VWS V12.06,2013-05-15 00:00:00,
2013-05-14 20:30:00,57.8,45.3,30.08,SW,217,4.0,4.0,63,0.00,,BKN100,-99.99,VWS V12.06,2013-05-15 00:30:00,
2013-05-14 21:00:00,57.1,45.5,30.08,SW,224,4.0,4.0,65,0.00,,OVC100,-99.99,VWS V12.06,2013-05-15 01:00:00,
2013-05-14 21:30:00,56.6,45.8,30.08,SW,218,2.0,2.0,67,0.00,,OVC100,-99.99,VWS V12.06,2013-05-15 01:30:00,
2013-05-14 22:00:00,55.7,45.7,30.08,WSW,244,3.0,4.0,69,0.00,,SCT100,-99.99,VWS V12.06,2013-05-15 02:00:00,
2013-05-14 22:30:00,55.3,46.1,30.09,SW,214,4.0,4.0,71,0.00,,SCT100,-99.99,VWS V12.06,2013-05-15 02:30:00,
2013-05-14 23:00:00,55.8,46.2,30.09,SW,222,3.0,3.0,70,0.00,,SCT100,-99.99,VWS V12.06,2013-05-15 03:00:00,
2013-05-14 23:30:00,55.8,46.2,30.07,SW,224,2.0,3.0,70,0.00,,SCT100,-99.99,VWS V12.06,2013-05-15 03:30:00,